createdAt,value
2022-11-17T00:00:24.683Z,94.35
2022-11-17T00:03:15.998Z,94.15
2022-11-17T00:06:06.872Z,94.30
2022-11-17T00:08:53.684Z,94.13
2022-11-17T00:11:58.666Z,94.14
2022-11-17T00:14:44.591Z,93.90
2022-11-17T00:17:31.109Z,94.42
2022-11-17T00:20:35.909Z,94.26
2022-11-17T00:23:22.223Z,94.57
2022-11-17T00:26:08.088Z,94.00
2022-11-17T00:28:58.966Z,94.11
2022-11-17T00:32:03.935Z,93.99
2022-11-17T00:34:50.327Z,94.24
2022-11-17T00:37:37.701Z,94.25
2022-11-17T00:40:24.174Z,93.99
2022-11-17T00:43:10.445Z,93.91
2022-11-17T00:45:57.392Z,93.84
2022-11-17T00:48:43.653Z,93.79
2022-11-17T00:51:30.173Z,93.78
2022-11-17T00:54:16.290Z,93.46
2022-11-17T00:57:03.041Z,93.54
2022-11-17T00:59:49.122Z,92.91
2022-11-17T01:02:35.401Z,93.16
2022-11-17T01:05:21.535Z,93.00
2022-11-17T01:08:07.810Z,92.98
2022-11-17T01:10:54.376Z,92.97
2022-11-17T01:13:42.050Z,93.09
2022-11-17T01:16:29.007Z,93.15
2022-11-17T01:19:16.464Z,93.05
2022-11-17T01:22:02.662Z,93.26
2022-11-17T01:24:48.977Z,92.91
2022-11-17T01:27:35.363Z,93.32
2022-11-17T01:30:21.937Z,93.42
2022-11-17T01:33:08.479Z,93.08
2022-11-17T01:35:54.877Z,92.75
2022-11-17T01:38:40.779Z,93.14
2022-11-17T01:41:28.359Z,92.81
2022-11-17T01:44:36.339Z,92.89
2022-11-17T01:47:32.214Z,93.42
2022-11-17T01:50:32.394Z,92.94
2022-11-17T01:53:20.066Z,92.56
2022-11-17T01:56:12.566Z,92.87
2022-11-17T01:59:04.517Z,92.68
2022-11-17T02:01:56.708Z,92.73
2022-11-17T02:04:49.682Z,92.65
2022-11-17T02:07:37.369Z,92.51
2022-11-17T02:10:23.337Z,92.40
2022-11-17T02:13:09.659Z,92.74
2022-11-17T02:15:55.815Z,92.74
2022-11-17T02:18:42.197Z,92.75
2022-11-17T02:22:02.399Z,92.73
2022-11-17T02:25:12.654Z,92.86
2022-11-17T02:28:13.715Z,92.52
2022-11-17T02:31:07.839Z,92.06
2022-11-17T02:34:04.471Z,92.64
2022-11-17T02:36:58.241Z,92.25
2022-11-17T02:40:03.304Z,91.51
2022-11-17T02:43:19.515Z,91.44
2022-11-17T02:46:18.370Z,91.77
2022-11-17T02:49:10.030Z,91.80
2022-11-17T02:51:58.395Z,91.58
2022-11-17T02:54:43.971Z,91.67
2022-11-17T02:57:34.575Z,91.44
2022-11-17T03:00:20.758Z,91.82
2022-11-17T03:03:35.002Z,91.50
2022-11-17T03:06:39.627Z,91.68
2022-11-17T03:09:33.098Z,91.72
2022-11-17T03:12:25.934Z,91.52
2022-11-17T03:15:41.010Z,91.55
2022-11-17T03:18:47.308Z,91.89
2022-11-17T03:21:50.033Z,91.50
2022-11-17T03:24:40.120Z,91.35
2022-11-17T03:27:33.510Z,91.75
2022-11-17T03:30:20.950Z,91.17
2022-11-17T03:33:15.216Z,91.60
2022-11-17T03:36:11.660Z,91.36
2022-11-17T03:39:17.038Z,91.22
2022-11-17T03:42:07.019Z,91.29
2022-11-17T03:44:56.286Z,91.17
2022-11-17T03:47:42.995Z,91.26
2022-11-17T03:50:34.950Z,91.09
2022-11-17T03:53:20.379Z,91.51
2022-11-17T03:56:28.271Z,91.53
2022-11-17T03:59:22.793Z,91.37
2022-11-17T04:02:09.512Z,91.71
2022-11-17T04:05:07.285Z,91.33
2022-11-17T04:07:53.287Z,91.35
2022-11-17T04:10:58.756Z,90.97
2022-11-17T04:14:03.279Z,91.37
2022-11-17T04:16:48.955Z,91.08
2022-11-17T04:19:34.775Z,91.33
2022-11-17T04:22:20.573Z,91.40
2022-11-17T04:25:06.883Z,91.56
2022-11-17T04:28:11.601Z,92.03
2022-11-17T04:30:57.859Z,91.04
2022-11-17T04:33:45.982Z,91.19
2022-11-17T04:36:35.921Z,91.61
2022-11-17T04:39:21.360Z,90.89
2022-11-17T04:42:07.361Z,91.75
2022-11-17T04:44:52.752Z,91.41
2022-11-17T04:47:38.393Z,91.07
2022-11-17T04:50:24.031Z,90.89
2022-11-17T04:53:09.795Z,91.73
2022-11-17T04:55:59.956Z,91.37
2022-11-17T04:58:46.263Z,91.62
2022-11-17T05:01:32.658Z,91.11
2022-11-17T05:04:39.009Z,91.53
2022-11-17T05:07:24.543Z,91.48
2022-11-17T05:10:12.754Z,91.31
2022-11-17T05:13:30.111Z,91.42
2022-11-17T05:16:34.700Z,91.73
2022-11-17T05:19:23.083Z,91.52
2022-11-17T05:22:28.408Z,91.66
2022-11-17T05:25:14.605Z,91.51
2022-11-17T05:28:00.615Z,91.93
2022-11-17T05:30:46.186Z,91.38
2022-11-17T05:33:37.453Z,91.25
2022-11-17T05:36:24.569Z,91.56
2022-11-17T05:39:11.229Z,90.76
2022-11-17T05:41:56.727Z,91.96
2022-11-17T05:44:42.534Z,91.29
2022-11-17T05:47:28.209Z,91.56
2022-11-17T05:50:13.949Z,91.12
2022-11-17T05:52:59.642Z,91.06
2022-11-17T05:55:45.393Z,91.08
2022-11-17T05:58:35.214Z,91.40
2022-11-17T06:01:21.587Z,91.45
2022-11-17T06:04:08.040Z,91.16
2022-11-17T06:06:58.967Z,91.57
2022-11-17T06:09:44.746Z,91.41
2022-11-17T06:12:30.910Z,91.13
2022-11-17T06:15:16.839Z,91.17
2022-11-17T06:18:06.565Z,91.29
2022-11-17T06:20:53.844Z,91.46
2022-11-17T06:23:39.607Z,91.28
2022-11-17T06:26:25.445Z,91.18
2022-11-17T06:29:11.369Z,90.89
2022-11-17T06:31:58.179Z,91.23
2022-11-17T06:34:48.045Z,91.27
2022-11-17T06:37:37.674Z,91.03
2022-11-17T06:40:23.809Z,90.72
2022-11-17T06:43:11.752Z,90.71
2022-11-17T06:45:57.608Z,90.62
2022-11-17T06:48:43.737Z,90.53
2022-11-17T06:51:29.557Z,90.99
2022-11-17T06:54:15.514Z,90.99
2022-11-17T06:57:01.375Z,90.99
2022-11-17T06:59:47.275Z,91.11
2022-11-17T07:02:33.151Z,91.42
2022-11-17T07:05:18.750Z,90.67
2022-11-17T07:08:08.353Z,90.59
2022-11-17T07:10:55.036Z,90.96
2022-11-17T07:13:40.825Z,91.43
2022-11-17T07:16:26.810Z,91.06
2022-11-17T07:19:13.204Z,90.76
2022-11-17T07:21:58.856Z,90.64
2022-11-17T07:24:44.909Z,91.50
2022-11-17T07:27:30.915Z,91.23
2022-11-17T07:30:17.465Z,90.80
2022-11-17T07:43:58.676Z,91.11
2022-11-17T08:03:06.678Z,91.07
2022-11-17T08:11:23.681Z,91.03
2022-11-17T08:25:20.469Z,90.61
2022-11-17T08:28:35.423Z,90.70
2022-11-17T08:31:52.381Z,90.36
2022-11-17T08:35:08.575Z,90.51
2022-11-17T08:38:27.894Z,90.75
2022-11-17T08:41:15.304Z,89.89
2022-11-17T09:05:11.693Z,89.38
2022-11-17T09:08:44.377Z,89.39
2022-11-17T09:11:54.352Z,89.25
2022-11-17T09:15:32.724Z,88.05
2022-11-17T09:18:37.142Z,88.24
2022-11-17T09:21:23.098Z,88.38
2022-11-17T09:24:08.643Z,87.67
2022-11-17T09:26:54.986Z,87.21
2022-11-17T09:29:41.051Z,87.38
2022-11-17T09:32:27.987Z,87.44
2022-11-17T09:35:14.303Z,87.29
2022-11-17T09:38:03.648Z,86.75
2022-11-17T09:40:49.645Z,86.09
2022-11-17T09:43:37.995Z,85.86
2022-11-17T09:46:35.041Z,84.63
2022-11-17T09:49:40.073Z,84.87
2022-11-17T09:52:31.446Z,84.30
2022-11-17T09:55:31.149Z,84.34
2022-11-17T09:58:46.366Z,84.91
2022-11-17T10:01:32.417Z,83.80
2022-11-17T10:04:18.655Z,84.05
2022-11-17T10:07:04.396Z,84.22
2022-11-17T10:09:50.929Z,83.54
2022-11-17T10:12:44.903Z,84.06
2022-11-17T10:15:42.316Z,82.55
2022-11-17T10:18:36.572Z,82.70
2022-11-17T10:21:23.829Z,83.04
2022-11-17T10:24:10.068Z,82.64
2022-11-17T10:26:55.522Z,82.33
2022-11-17T10:29:41.325Z,82.65
2022-11-17T10:32:29.157Z,82.60
2022-11-17T10:35:19.330Z,81.57
2022-11-17T10:38:07.978Z,81.82
2022-11-17T10:40:55.211Z,82.21
2022-11-17T10:43:57.190Z,81.86
2022-11-17T10:47:02.040Z,82.68
2022-11-17T10:50:13.501Z,81.93
2022-11-17T10:53:21.762Z,81.91
2022-11-17T10:56:13.476Z,81.45
2022-11-17T10:59:14.369Z,80.90
2022-11-17T11:02:28.176Z,80.66
2022-11-17T11:05:33.918Z,81.18
2022-11-17T11:08:47.472Z,81.04
2022-11-17T11:11:41.486Z,81.26
2022-11-17T11:14:35.116Z,81.78
2022-11-17T11:17:21.053Z,81.88
2022-11-17T11:20:13.118Z,82.27
2022-11-17T11:23:23.781Z,81.51
2022-11-17T11:26:27.513Z,81.65
2022-11-17T11:29:28.674Z,81.15
2022-11-17T11:32:14.702Z,81.03
2022-11-17T11:35:17.214Z,80.96
2022-11-17T11:38:28.886Z,81.36
2022-11-17T11:41:33.009Z,81.03
2022-11-17T11:44:57.562Z,81.11
2022-11-17T11:47:51.989Z,80.86
2022-11-17T11:50:49.057Z,80.53
2022-11-17T11:54:02.609Z,81.25
2022-11-17T11:56:48.664Z,80.91
2022-11-17T11:59:34.392Z,81.30
2022-11-17T12:02:55.692Z,81.19
2022-11-17T12:05:41.358Z,80.60
2022-11-17T12:08:45.780Z,80.15
2022-11-17T12:11:50.609Z,80.95
2022-11-17T12:14:37.834Z,80.78
2022-11-17T12:17:26.219Z,80.59
2022-11-17T12:20:30.991Z,81.61
2022-11-17T12:23:38.236Z,81.81
2022-11-17T12:26:25.611Z,81.79
2022-11-17T12:29:19.986Z,81.76
2022-11-17T12:32:06.053Z,81.66
2022-11-17T12:35:30.114Z,82.17
2022-11-17T12:38:16.406Z,82.14
2022-11-17T12:41:02.283Z,82.50
2022-11-17T12:43:48.929Z,82.23
2022-11-17T12:46:34.931Z,82.57
2022-11-17T12:49:27.994Z,82.17
2022-11-17T12:52:22.946Z,81.77
2022-11-17T12:55:12.233Z,82.06
2022-11-17T12:58:10.544Z,81.67
2022-11-17T13:01:10.289Z,81.68
2022-11-17T13:04:12.751Z,82.00
2022-11-17T13:07:07.271Z,81.39
2022-11-17T13:09:57.217Z,81.55
2022-11-17T13:12:43.643Z,81.49
2022-11-17T13:15:29.714Z,81.74
2022-11-17T13:18:28.364Z,82.18
2022-11-17T13:21:33.157Z,82.05
2022-11-17T13:24:30.200Z,82.29
2022-11-17T13:27:29.019Z,81.94
2022-11-17T13:30:29.178Z,82.24
2022-11-17T13:33:20.366Z,82.36
2022-11-17T13:36:12.298Z,82.31
2022-11-17T13:39:00.475Z,82.09
2022-11-17T13:41:46.910Z,82.34
2022-11-17T13:44:33.073Z,82.57
2022-11-17T13:47:28.871Z,82.33
2022-11-17T13:50:26.845Z,82.74
2022-11-17T13:53:12.579Z,82.90
2022-11-17T13:55:58.077Z,82.67
2022-11-17T13:58:48.280Z,82.50
2022-11-17T14:01:34.303Z,82.44
2022-11-17T14:04:23.201Z,82.82
2022-11-17T14:07:10.877Z,82.94
2022-11-17T14:10:31.297Z,82.74
2022-11-17T14:13:16.809Z,82.83
2022-11-17T14:16:02.651Z,83.08
2022-11-17T14:18:56.536Z,82.82
2022-11-17T14:22:13.234Z,82.81
2022-11-17T14:25:05.694Z,82.91
2022-11-17T14:27:53.308Z,83.15
2022-11-17T14:30:39.253Z,83.09
2022-11-17T14:33:25.835Z,83.50
2022-11-17T14:36:16.740Z,83.91
2022-11-17T14:39:03.204Z,83.58
2022-11-17T14:41:49.958Z,83.44
2022-11-17T14:44:35.895Z,83.50
2022-11-17T14:47:21.318Z,83.89
2022-11-17T14:50:09.884Z,84.01
2022-11-17T14:52:55.456Z,84.12
2022-11-17T14:55:41.480Z,83.71
2022-11-17T14:58:27.247Z,84.07
2022-11-17T15:01:18.742Z,83.96
2022-11-17T15:04:27.257Z,84.15
2022-11-17T15:07:11.588Z,84.34
2022-11-17T15:09:57.740Z,84.40
2022-11-17T15:12:43.760Z,84.28
2022-11-17T15:15:29.227Z,84.26
2022-11-17T15:18:15.188Z,84.32
2022-11-17T15:21:05.696Z,84.91
2022-11-17T15:23:51.504Z,84.81
2022-11-17T15:26:37.205Z,84.55
2022-11-17T15:29:23.375Z,84.88
2022-11-17T15:32:09.010Z,85.03
2022-11-17T15:34:55.079Z,85.34
2022-11-17T15:37:40.453Z,85.35
2022-11-17T15:40:26.427Z,85.43
2022-11-17T15:43:11.921Z,85.57
2022-11-17T15:46:06.413Z,86.05
2022-11-17T15:48:52.632Z,86.20
2022-11-17T15:51:38.818Z,85.94
2022-11-17T15:54:25.111Z,85.91
2022-11-17T15:57:10.613Z,85.17
2022-11-17T15:59:56.390Z,85.73
2022-11-17T16:02:42.347Z,85.47
2022-11-17T16:05:28.313Z,85.72
2022-11-17T16:08:14.130Z,86.01
2022-11-17T16:10:59.512Z,85.61
2022-11-17T16:13:45.652Z,85.61
2022-11-17T16:16:33.945Z,85.11
2022-11-17T16:19:20.076Z,85.89
2022-11-17T16:22:05.659Z,85.22
2022-11-17T16:24:51.324Z,85.64
2022-11-17T16:27:37.037Z,85.53
2022-11-17T16:30:29.256Z,85.38
2022-11-17T16:33:17.559Z,85.82
2022-11-17T16:36:07.132Z,85.63
2022-11-17T16:39:02.124Z,85.25
2022-11-17T16:42:00.243Z,85.38
2022-11-17T16:44:46.007Z,85.35
2022-11-17T16:47:32.310Z,85.34
2022-11-17T16:50:17.828Z,86.10
2022-11-17T16:53:04.935Z,85.13
2022-11-17T16:55:50.613Z,85.33
2022-11-17T16:58:36.787Z,85.49
2022-11-17T17:01:26.257Z,85.62
2022-11-17T17:04:12.595Z,85.67
2022-11-17T17:06:58.437Z,85.79
2022-11-17T17:09:44.040Z,85.26
2022-11-17T17:12:29.410Z,85.56
2022-11-17T17:15:15.375Z,86.03
2022-11-17T17:18:03.449Z,85.46
2022-11-17T17:20:52.677Z,85.79
2022-11-17T17:23:38.231Z,85.74
2022-11-17T17:26:26.450Z,86.20
2022-11-17T17:29:12.721Z,86.35
2022-11-17T17:31:58.428Z,86.33
2022-11-17T17:34:44.029Z,86.67
2022-11-17T17:37:32.298Z,86.96
2022-11-17T17:40:19.243Z,87.44
2022-11-17T17:43:12.075Z,87.20
2022-11-17T17:46:15.863Z,87.38
2022-11-17T17:49:02.234Z,87.40
2022-11-17T17:51:47.980Z,87.53
2022-11-17T17:54:33.965Z,87.78
2022-11-17T17:57:20.056Z,87.76
2022-11-17T18:00:06.717Z,88.07
2022-11-17T18:02:52.853Z,87.97
2022-11-17T18:05:39.032Z,87.39
2022-11-17T18:08:24.483Z,87.28
2022-11-17T18:11:13.157Z,87.21
2022-11-17T18:14:00.726Z,86.97
2022-11-17T18:16:46.333Z,87.29
2022-11-17T18:19:33.454Z,87.19
2022-11-17T18:22:19.630Z,87.13
2022-11-17T18:25:09.179Z,87.15
2022-11-17T18:27:57.096Z,87.43
2022-11-17T18:30:42.579Z,87.00
2022-11-17T18:33:29.767Z,87.34
2022-11-17T18:36:15.224Z,87.56
2022-11-17T18:39:01.051Z,87.32
2022-11-17T18:41:47.034Z,87.29
2022-11-17T18:44:33.293Z,86.92
2022-11-17T18:47:18.804Z,87.55
2022-11-17T18:50:04.865Z,87.41
2022-11-17T18:52:50.474Z,87.58
2022-11-17T18:55:36.575Z,86.71
2022-11-17T18:58:22.199Z,86.70
2022-11-17T19:01:14.102Z,87.72
2022-11-17T19:04:01.019Z,86.51
2022-11-17T19:06:46.812Z,86.72
2022-11-17T19:09:32.131Z,86.55
2022-11-17T19:12:19.032Z,85.71
2022-11-17T19:15:05.470Z,85.92
2022-11-17T19:17:51.554Z,85.88
2022-11-17T19:20:36.993Z,86.06
2022-11-17T19:23:22.946Z,86.55
2022-11-17T19:26:10.960Z,86.98
2022-11-17T19:28:58.394Z,87.23
2022-11-17T19:31:45.203Z,87.38
2022-11-17T19:34:31.684Z,87.54
2022-11-17T19:37:17.700Z,87.52
2022-11-17T19:40:03.442Z,87.78
2022-11-17T19:42:50.135Z,88.05
2022-11-17T19:45:35.904Z,87.78
2022-11-17T19:48:21.205Z,88.17
2022-11-17T19:51:20.464Z,88.12
2022-11-17T19:54:08.436Z,88.30
2022-11-17T19:56:54.645Z,88.80
2022-11-17T19:59:40.625Z,88.03
2022-11-17T20:02:26.577Z,88.88
2022-11-17T20:05:12.139Z,89.00
2022-11-17T20:07:57.900Z,88.93
2022-11-17T20:10:43.474Z,88.46
2022-11-17T20:13:31.399Z,88.60
2022-11-17T20:16:22.176Z,88.23
2022-11-17T20:19:09.001Z,88.16
2022-11-17T20:21:54.690Z,88.32
2022-11-17T20:24:40.867Z,88.55
2022-11-17T20:27:26.452Z,88.26
2022-11-17T20:30:15.347Z,88.32
2022-11-17T20:33:01.664Z,88.32
2022-11-17T20:35:47.305Z,88.33
2022-11-17T20:38:33.160Z,88.65
2022-11-17T20:41:20.993Z,87.63
2022-11-17T20:44:23.628Z,87.90
2022-11-17T20:47:09.757Z,87.77
2022-11-17T20:49:55.713Z,87.78
2022-11-17T20:52:41.444Z,87.75
2022-11-17T20:55:27.054Z,88.11
2022-11-17T20:58:13.409Z,87.33
2022-11-17T21:00:59.585Z,87.80
2022-11-17T21:03:45.819Z,88.15
2022-11-17T21:06:31.849Z,87.55
2022-11-17T21:09:18.367Z,87.90
2022-11-17T21:12:04.519Z,88.05
2022-11-17T21:14:50.337Z,88.50
2022-11-17T21:17:54.723Z,88.82
2022-11-17T21:20:42.835Z,89.63
2022-11-17T21:23:28.463Z,89.37
2022-11-17T21:26:19.356Z,89.61
2022-11-17T21:29:06.918Z,90.09
2022-11-17T21:31:52.873Z,89.79
2022-11-17T21:34:38.151Z,90.50
2022-11-17T21:37:24.408Z,90.54
2022-11-17T21:40:10.047Z,90.58
2022-11-17T21:42:56.124Z,90.35
2022-11-17T21:45:42.184Z,90.88
2022-11-17T21:48:28.440Z,91.12
2022-11-17T21:51:25.008Z,91.19
2022-11-17T21:54:10.879Z,91.31
2022-11-17T21:56:56.470Z,91.54
2022-11-17T21:59:42.539Z,91.97
2022-11-17T22:02:28.098Z,92.14
2022-11-17T22:05:14.003Z,92.09
2022-11-17T22:07:59.892Z,92.66
2022-11-17T22:10:45.686Z,93.07
2022-11-17T22:13:31.103Z,93.77
2022-11-17T22:16:16.811Z,93.12
2022-11-17T22:19:03.085Z,94.02
2022-11-17T22:21:51.206Z,93.91
2022-11-17T22:24:39.543Z,94.31
2022-11-17T22:27:28.260Z,94.26
2022-11-17T22:30:15.048Z,94.50
2022-11-17T22:33:01.286Z,94.32
2022-11-17T22:35:46.942Z,94.54
2022-11-17T22:38:33.090Z,94.73
2022-11-17T22:41:21.304Z,95.05
2022-11-17T22:44:07.499Z,95.57
2022-11-17T22:46:53.914Z,95.30
2022-11-17T22:49:40.519Z,95.39
2022-11-17T22:52:26.403Z,95.25
2022-11-17T22:55:13.176Z,95.19
2022-11-17T22:57:59.140Z,95.35
2022-11-17T23:00:46.078Z,95.63
2022-11-17T23:03:32.761Z,95.04
2022-11-17T23:06:19.068Z,94.96
2022-11-17T23:09:04.671Z,94.90
2022-11-17T23:11:50.945Z,94.18
2022-11-17T23:14:36.386Z,93.92
2022-11-17T23:17:22.409Z,94.03
2022-11-17T23:20:10.110Z,94.55
2022-11-17T23:22:56.071Z,94.67
2022-11-17T23:25:42.006Z,93.98
2022-11-17T23:28:27.761Z,93.65
2022-11-17T23:31:15.148Z,93.19
2022-11-17T23:34:01.950Z,92.67
2022-11-17T23:36:47.550Z,92.63
2022-11-17T23:39:33.541Z,92.71
2022-11-17T23:42:19.015Z,92.23
2022-11-17T23:45:05.692Z,91.85
2022-11-17T23:47:51.566Z,91.41
2022-11-17T23:50:38.007Z,91.11
2022-11-17T23:53:23.990Z,90.73
2022-11-17T23:56:11.107Z,90.95
2022-11-17T23:58:56.695Z,90.65
